createdAt,value
2022-08-03T00:01:52.833Z,3.50
2022-08-03T00:03:56.790Z,3.10
2022-08-03T00:06:03.532Z,2.40
2022-08-03T00:08:07.688Z,2.77
2022-08-03T00:10:13.707Z,3.23
2022-08-03T00:12:17.608Z,3.50
2022-08-03T00:14:21.408Z,2.83
2022-08-03T00:16:26.349Z,3.07
2022-08-03T00:18:29.762Z,3.03
2022-08-03T00:20:33.229Z,3.50
2022-08-03T00:22:36.883Z,3.43
2022-08-03T00:24:40.323Z,2.80
2022-08-03T00:26:45.242Z,3.20
2022-08-03T00:28:48.804Z,2.93
2022-08-03T00:30:52.216Z,2.97
2022-08-03T00:32:55.851Z,2.60
2022-08-03T00:34:59.512Z,3.17
2022-08-03T00:37:04.451Z,2.60
2022-08-03T00:39:08.244Z,2.97
2022-08-03T00:41:11.826Z,2.80
2022-08-03T00:43:20.431Z,2.60
2022-08-03T00:45:25.619Z,3.30
2022-08-03T00:47:29.180Z,3.10
2022-08-03T00:49:32.658Z,2.83
2022-08-03T00:51:36.218Z,2.80
2022-08-03T00:53:39.875Z,3.10
2022-08-03T00:55:43.616Z,3.23
2022-08-03T00:57:47.721Z,3.07
2022-08-03T00:59:52.862Z,3.23
2022-08-03T01:01:56.675Z,3.93
2022-08-03T01:04:00.497Z,3.40
2022-08-03T01:06:11.885Z,3.43
2022-08-03T01:08:24.151Z,2.70
2022-08-03T01:10:38.615Z,3.63
2022-08-03T01:12:49.758Z,3.37
2022-08-03T01:15:01.235Z,3.57
2022-08-03T01:17:14.401Z,3.37
2022-08-03T01:19:36.106Z,3.23
2022-08-03T01:21:54.050Z,3.40
2022-08-03T01:24:08.283Z,2.60
2022-08-03T01:26:35.881Z,3.10
2022-08-03T01:29:00.585Z,3.13
2022-08-03T01:31:09.532Z,3.33
2022-08-03T01:33:16.848Z,3.13
2022-08-03T01:35:27.219Z,3.27
2022-08-03T01:37:36.326Z,3.20
2022-08-03T01:39:44.051Z,2.80
2022-08-03T01:41:51.736Z,2.90
2022-08-03T01:44:29.688Z,2.70
2022-08-03T01:46:22.870Z,3.30
2022-08-03T01:48:27.407Z,3.03
2022-08-03T01:50:34.344Z,3.33
2022-08-03T01:52:41.330Z,3.43
2022-08-03T01:54:47.615Z,3.80
2022-08-03T01:56:53.475Z,2.70
2022-08-03T01:58:59.866Z,3.07
2022-08-03T02:01:04.667Z,3.10
2022-08-03T02:03:10.892Z,3.10
2022-08-03T02:05:15.868Z,3.20
2022-08-03T02:07:20.665Z,2.90
2022-08-03T02:09:24.837Z,3.03
2022-08-03T02:11:31.730Z,3.40
2022-08-03T02:13:36.504Z,2.77
2022-08-03T02:15:40.937Z,3.43
2022-08-03T02:17:46.811Z,2.97
2022-08-03T02:19:52.737Z,2.73
2022-08-03T02:22:01.119Z,3.40
2022-08-03T02:24:06.844Z,3.83
2022-08-03T02:26:15.793Z,2.87
2022-08-03T02:28:21.959Z,2.73
2022-08-03T02:30:31.876Z,3.03
2022-08-03T02:32:38.902Z,3.13
2022-08-03T02:34:46.212Z,3.27
2022-08-03T02:36:54.709Z,2.77
2022-08-03T02:39:01.700Z,3.23
2022-08-03T02:41:09.402Z,3.20
2022-08-03T02:43:19.016Z,3.43
2022-08-03T02:45:27.278Z,3.07
2022-08-03T02:47:53.588Z,2.90
2022-08-03T02:49:58.448Z,2.70
2022-08-03T02:52:05.788Z,3.20
2022-08-03T02:54:19.253Z,3.00
2022-08-03T02:56:25.219Z,2.73
2022-08-03T02:58:30.437Z,3.30
2022-08-03T03:00:35.474Z,3.10
2022-08-03T03:02:43.991Z,3.87
2022-08-03T03:05:51.078Z,2.80
2022-08-03T03:07:18.698Z,3.07
2022-08-03T03:09:22.823Z,3.20
2022-08-03T03:11:27.214Z,3.13
2022-08-03T03:13:31.956Z,3.10
2022-08-03T03:15:37.790Z,2.93
2022-08-03T03:17:43.813Z,3.10
2022-08-03T03:19:48.510Z,2.90
2022-08-03T03:21:53.415Z,3.33
2022-08-03T03:23:58.912Z,3.63
2022-08-03T03:26:03.030Z,3.60
2022-08-03T03:28:07.208Z,3.20
2022-08-03T03:30:11.572Z,3.40
2022-08-03T03:32:15.656Z,3.00
2022-08-03T03:34:20.235Z,2.70
2022-08-03T03:36:23.657Z,3.43
2022-08-03T03:38:27.421Z,3.00
2022-08-03T03:40:32.355Z,3.20
2022-08-03T03:42:36.015Z,3.10
2022-08-03T03:44:39.703Z,3.10
2022-08-03T03:46:43.496Z,3.10
2022-08-03T03:48:47.105Z,2.70
2022-08-03T03:50:51.343Z,3.17
2022-08-03T03:52:54.823Z,3.60
2022-08-03T03:55:01.037Z,3.57
2022-08-03T03:57:06.536Z,3.00
2022-08-03T03:59:10.024Z,3.10
2022-08-03T04:01:14.332Z,3.40
2022-08-03T04:03:17.969Z,3.93
2022-08-03T04:05:42.915Z,3.33
2022-08-03T04:08:16.072Z,3.23
2022-08-03T04:10:48.527Z,3.70
2022-08-03T04:12:55.144Z,2.80
2022-08-03T04:15:02.041Z,2.90
2022-08-03T04:17:09.911Z,2.93
2022-08-03T04:19:23.088Z,2.63
2022-08-03T04:21:27.785Z,2.60
2022-08-03T04:23:34.804Z,2.50
2022-08-03T04:25:40.850Z,3.73
2022-08-03T04:27:45.497Z,2.83
2022-08-03T04:30:11.837Z,3.83
2022-08-03T04:32:16.629Z,3.20
2022-08-03T04:34:20.826Z,2.87
2022-08-03T04:36:32.998Z,3.57
2022-08-03T04:38:45.216Z,3.17
2022-08-03T04:40:49.550Z,3.30
2022-08-03T04:42:56.163Z,2.87
2022-08-03T04:45:01.697Z,2.53
2022-08-03T04:47:06.979Z,2.43
2022-08-03T04:49:11.258Z,3.00
2022-08-03T04:51:15.939Z,3.30
2022-08-03T04:53:19.527Z,3.40
2022-08-03T04:55:29.490Z,3.53
2022-08-03T04:57:32.981Z,2.87
2022-08-03T04:59:36.429Z,2.97
2022-08-03T05:01:44.647Z,3.60
2022-08-03T05:03:49.593Z,3.53
2022-08-03T05:05:53.100Z,3.40
2022-08-03T05:08:05.993Z,3.87
2022-08-03T05:10:16.378Z,3.27
2022-08-03T05:12:20.291Z,3.90
2022-08-03T05:14:28.186Z,3.50
2022-08-03T05:16:32.063Z,2.90
2022-08-03T05:18:35.909Z,3.47
2022-08-03T05:20:40.746Z,3.23
2022-08-03T05:22:44.220Z,3.00
2022-08-03T05:24:47.729Z,3.70
2022-08-03T05:26:51.286Z,3.60
2022-08-03T05:28:54.759Z,3.70
2022-08-03T05:30:58.439Z,3.47
2022-08-03T05:33:02.412Z,3.50
2022-08-03T05:36:01.805Z,3.30
2022-08-03T05:37:31.581Z,3.50
2022-08-03T05:39:35.379Z,3.50
2022-08-03T05:41:38.829Z,3.53
2022-08-03T05:43:42.312Z,3.80
2022-08-03T05:45:45.777Z,3.33
2022-08-03T05:47:50.960Z,4.13
2022-08-03T05:49:54.363Z,4.30
2022-08-03T05:51:59.988Z,3.93
2022-08-03T05:54:14.850Z,4.10
2022-08-03T05:56:18.352Z,4.30
2022-08-03T05:58:22.049Z,9.00
2022-08-03T06:00:25.721Z,6.43
2022-08-03T06:02:29.513Z,5.90
2022-08-03T06:04:33.156Z,5.73
2022-08-03T06:06:36.697Z,5.10
2022-08-03T06:08:40.793Z,4.23
2022-08-03T06:10:45.534Z,4.87
2022-08-03T06:12:49.482Z,4.67
2022-08-03T06:14:52.864Z,5.00
2022-08-03T06:16:56.384Z,4.00
2022-08-03T06:18:59.758Z,4.37
2022-08-03T06:21:14.651Z,5.00
2022-08-03T06:23:19.556Z,4.80
2022-08-03T06:25:23.355Z,4.43
2022-08-03T06:27:36.505Z,4.47
2022-08-03T06:29:40.893Z,4.80
2022-08-03T06:31:44.573Z,4.60
2022-08-03T06:33:48.423Z,3.87
2022-08-03T06:36:12.170Z,5.20
2022-08-03T06:38:15.872Z,4.50
2022-08-03T06:40:24.550Z,5.37
2022-08-03T06:42:30.248Z,5.47
2022-08-03T06:44:33.677Z,4.83
2022-08-03T06:46:37.075Z,4.83
2022-08-03T06:48:40.666Z,4.20
2022-08-03T06:50:44.604Z,4.20
2022-08-03T06:52:48.063Z,4.73
2022-08-03T06:54:51.544Z,6.70
2022-08-03T06:56:55.194Z,5.90
2022-08-03T06:59:00.336Z,5.50
2022-08-03T07:01:03.797Z,4.03
2022-08-03T07:03:07.327Z,3.63
2022-08-03T07:05:11.242Z,3.70
2022-08-03T07:07:15.212Z,3.33
2022-08-03T07:09:18.635Z,3.80
2022-08-03T07:11:22.085Z,3.43
2022-08-03T07:13:25.533Z,5.57
2022-08-03T07:15:38.397Z,3.00
2022-08-03T07:17:54.379Z,4.00
2022-08-03T07:19:57.978Z,3.50
2022-08-03T07:22:04.290Z,4.03
2022-08-03T07:24:08.200Z,3.87
2022-08-03T07:26:11.674Z,3.63
2022-08-03T07:28:15.178Z,4.07
2022-08-03T07:30:19.098Z,3.97
2022-08-03T07:32:24.385Z,3.97
2022-08-03T07:34:27.990Z,4.20
2022-08-03T07:36:32.198Z,5.13
2022-08-03T07:38:38.516Z,3.90
2022-08-03T07:40:45.849Z,3.90
2022-08-03T07:42:52.108Z,3.77
2022-08-03T07:44:57.304Z,3.83
2022-08-03T07:47:03.328Z,3.00
2022-08-03T07:49:08.916Z,3.20
2022-08-03T07:51:12.373Z,3.50
2022-08-03T07:53:15.817Z,3.13
2022-08-03T07:55:21.461Z,3.30
2022-08-03T07:57:25.044Z,4.07
2022-08-03T07:59:28.533Z,2.90
2022-08-03T08:01:53.508Z,3.40
2022-08-03T08:03:57.007Z,3.10
2022-08-03T08:06:01.741Z,2.70
2022-08-03T08:08:05.892Z,2.87
2022-08-03T08:10:10.964Z,3.00
2022-08-03T08:12:15.683Z,3.23
2022-08-03T08:14:19.599Z,2.93
2022-08-03T08:16:23.028Z,2.70
2022-08-03T08:18:29.494Z,3.40
2022-08-03T08:20:34.976Z,3.00
2022-08-03T08:22:42.905Z,3.43
2022-08-03T08:24:49.097Z,4.13
2022-08-03T08:26:54.438Z,4.03
2022-08-03T08:28:57.845Z,2.90
2022-08-03T08:31:01.309Z,2.63
2022-08-03T08:33:05.032Z,2.50
2022-08-03T08:35:10.323Z,3.17
2022-08-03T08:37:13.756Z,3.10
2022-08-03T08:39:18.539Z,3.03
2022-08-03T08:41:22.694Z,3.30
2022-08-03T08:43:26.218Z,3.57
2022-08-03T08:45:29.906Z,2.80
2022-08-03T08:47:51.433Z,2.50
2022-08-03T08:50:09.186Z,2.50
2022-08-03T08:52:22.076Z,2.97
2022-08-03T08:54:32.477Z,3.90
2022-08-03T08:56:38.469Z,2.93
2022-08-03T08:58:48.111Z,2.60
2022-08-03T09:00:53.530Z,3.47
2022-08-03T09:02:57.212Z,2.60
2022-08-03T09:05:06.910Z,2.83
2022-08-03T09:07:20.027Z,3.07
2022-08-03T09:10:04.790Z,2.40
2022-08-03T09:12:00.979Z,2.83
2022-08-03T09:14:08.341Z,3.17
2022-08-03T09:16:13.830Z,2.70
2022-08-03T09:18:32.336Z,3.27
2022-08-03T09:20:37.157Z,2.67
2022-08-03T09:22:53.765Z,2.50
2022-08-03T09:25:22.962Z,2.60
2022-08-03T09:27:23.883Z,2.67
2022-08-03T09:29:27.406Z,3.00
2022-08-03T09:31:32.213Z,3.00
2022-08-03T09:33:48.390Z,2.93
2022-08-03T09:35:53.968Z,2.77
2022-08-03T09:38:14.220Z,3.43
2022-08-03T09:40:35.698Z,2.70
2022-08-03T09:42:57.546Z,2.33
2022-08-03T09:45:01.128Z,2.20
2022-08-03T09:47:05.772Z,2.50
2022-08-03T09:49:13.072Z,2.10
2022-08-03T09:52:27.322Z,2.07
2022-08-03T09:53:49.579Z,2.23
2022-08-03T09:56:33.467Z,2.00
2022-08-03T09:58:30.944Z,2.13
2022-08-03T10:00:46.645Z,2.10
2022-08-03T10:02:50.635Z,2.07
2022-08-03T10:04:55.281Z,1.80
2022-08-03T10:07:07.687Z,1.90
2022-08-03T10:09:12.677Z,2.20
2022-08-03T10:11:30.672Z,2.23
2022-08-03T10:13:37.229Z,2.30
2022-08-03T10:16:22.329Z,2.23
2022-08-03T10:18:04.540Z,2.00
2022-08-03T10:20:10.263Z,1.97
2022-08-03T10:22:15.539Z,1.77
2022-08-03T10:24:25.437Z,1.87
2022-08-03T10:26:32.103Z,2.60
2022-08-03T10:28:44.953Z,1.50
2022-08-03T10:30:51.220Z,1.40
2022-08-03T10:33:01.888Z,1.83
2022-08-03T10:35:19.566Z,1.30
2022-08-03T10:37:26.088Z,1.30
2022-08-03T10:39:31.423Z,1.60
2022-08-03T10:41:40.912Z,1.87
2022-08-03T10:43:51.645Z,1.47
2022-08-03T10:45:56.186Z,2.00
2022-08-03T10:48:01.238Z,1.67
2022-08-03T10:50:06.189Z,1.73
2022-08-03T10:52:13.465Z,1.40
2022-08-03T10:54:58.781Z,1.73
2022-08-03T10:57:20.469Z,2.23
2022-08-03T10:59:57.077Z,1.83
2022-08-03T11:02:01.892Z,1.40
2022-08-03T11:04:19.127Z,1.87
2022-08-03T11:06:25.486Z,1.57
2022-08-03T11:08:31.465Z,1.47
2022-08-03T11:10:34.870Z,1.23
2022-08-03T11:12:40.027Z,1.33
2022-08-03T11:14:48.226Z,1.53
2022-08-03T11:17:07.843Z,4.90
2022-08-03T11:19:22.680Z,4.50
2022-08-03T11:22:07.565Z,2.27
2022-08-03T11:24:11.012Z,1.80
2022-08-03T11:26:18.574Z,1.50
2022-08-03T11:28:29.397Z,1.40
2022-08-03T11:30:34.181Z,1.30
2022-08-03T11:32:59.854Z,1.80
2022-08-03T11:35:12.620Z,1.47
2022-08-03T11:37:28.543Z,3.53
2022-08-03T11:39:43.502Z,2.67
2022-08-03T11:41:46.937Z,1.90
2022-08-03T11:43:50.277Z,1.83
2022-08-03T11:45:58.940Z,1.97
2022-08-03T11:48:14.733Z,1.50
2022-08-03T11:50:20.173Z,1.97
2022-08-03T11:52:27.282Z,1.90
2022-08-03T11:54:32.674Z,1.60
2022-08-03T11:56:45.907Z,1.40
2022-08-03T11:59:10.956Z,1.70
2022-08-03T12:01:21.213Z,1.43
2022-08-03T12:03:26.480Z,1.40
2022-08-03T12:05:51.202Z,2.03
2022-08-03T12:08:04.123Z,2.20
2022-08-03T12:10:11.425Z,1.90
2022-08-03T12:12:17.229Z,1.70
2022-08-03T12:14:49.326Z,1.80
2022-08-03T12:16:48.124Z,1.70
2022-08-03T12:18:56.552Z,1.30
2022-08-03T12:21:08.224Z,1.60
2022-08-03T12:23:12.790Z,1.50
2022-08-03T12:25:39.548Z,1.90
2022-08-03T12:27:43.370Z,1.50
2022-08-03T12:29:57.233Z,1.73
2022-08-03T12:32:02.624Z,1.47
2022-08-03T12:34:08.798Z,1.80
2022-08-03T12:36:13.492Z,1.93
2022-08-03T12:38:22.820Z,1.53
2022-08-03T12:40:28.474Z,1.37
2022-08-03T12:42:32.728Z,1.37
2022-08-03T12:44:37.465Z,1.47
2022-08-03T12:46:47.456Z,1.30
2022-08-03T12:49:06.837Z,2.50
2022-08-03T12:51:11.776Z,1.40
2022-08-03T12:53:30.041Z,1.60
2022-08-03T12:56:01.481Z,1.30
2022-08-03T12:58:01.255Z,1.60
2022-08-03T13:00:21.376Z,2.40
2022-08-03T13:02:32.788Z,1.63
2022-08-03T13:04:37.348Z,1.73
2022-08-03T13:06:40.822Z,1.90
2022-08-03T13:08:47.908Z,1.83
2022-08-03T13:10:51.559Z,1.77
2022-08-03T13:12:58.397Z,1.50
2022-08-03T13:15:02.543Z,1.70
2022-08-03T13:17:07.075Z,1.83
2022-08-03T13:19:15.728Z,1.77
2022-08-03T13:21:21.584Z,1.37
2022-08-03T13:23:24.993Z,1.70
2022-08-03T13:25:29.859Z,1.70
2022-08-03T13:28:04.353Z,1.60
2022-08-03T13:29:57.214Z,1.60
2022-08-03T13:32:00.746Z,1.80
2022-08-03T13:34:04.116Z,1.57
2022-08-03T13:36:08.045Z,1.70
2022-08-03T13:38:11.530Z,1.67
2022-08-03T13:40:15.191Z,1.33
2022-08-03T13:42:20.090Z,1.93
2022-08-03T13:44:29.258Z,1.87
2022-08-03T13:46:34.463Z,1.30
2022-08-03T13:48:38.073Z,2.10
2022-08-03T13:50:43.157Z,2.10
2022-08-03T13:52:47.476Z,2.00
2022-08-03T13:54:50.918Z,1.70
2022-08-03T13:56:57.805Z,1.50
2022-08-03T13:59:06.148Z,1.50
2022-08-03T14:01:09.958Z,1.67
2022-08-03T14:03:14.662Z,1.60
2022-08-03T14:05:18.538Z,1.60
2022-08-03T14:07:21.921Z,1.77
2022-08-03T14:09:25.621Z,1.67
2022-08-03T14:12:04.014Z,1.80
2022-08-03T14:13:52.969Z,1.47
2022-08-03T14:15:57.751Z,1.60
2022-08-03T14:18:02.555Z,1.40
2022-08-03T14:20:36.288Z,2.00
2022-08-03T14:22:30.730Z,1.80
2022-08-03T14:24:34.114Z,2.57
2022-08-03T14:26:37.588Z,1.83
2022-08-03T14:28:41.920Z,1.70
2022-08-03T14:30:45.474Z,1.87
2022-08-03T14:32:50.292Z,1.70
2022-08-03T14:34:53.825Z,1.80
2022-08-03T14:36:57.290Z,2.27
2022-08-03T14:39:01.591Z,1.73
2022-08-03T14:41:05.184Z,2.07
2022-08-03T14:43:08.569Z,1.70
2022-08-03T14:45:20.353Z,1.80
2022-08-03T14:47:24.271Z,2.50
2022-08-03T14:50:37.685Z,1.70
2022-08-03T14:51:53.826Z,1.60
2022-08-03T14:53:57.578Z,1.80
2022-08-03T14:56:01.028Z,2.10
2022-08-03T14:58:05.779Z,1.57
2022-08-03T15:00:23.459Z,1.90
2022-08-03T15:02:27.918Z,2.00
2022-08-03T15:04:32.844Z,1.90
2022-08-03T15:06:36.678Z,1.63
2022-08-03T15:08:40.100Z,1.90
2022-08-03T15:10:44.892Z,1.80
2022-08-03T15:12:49.060Z,1.80
2022-08-03T15:14:52.506Z,1.40
2022-08-03T15:16:55.923Z,2.03
2022-08-03T15:19:00.852Z,1.90
2022-08-03T15:21:05.705Z,2.03
2022-08-03T15:23:09.126Z,1.93
2022-08-03T15:26:32.397Z,1.80
2022-08-03T15:27:36.377Z,1.60
2022-08-03T15:30:07.060Z,2.00
2022-08-03T15:32:13.644Z,1.70
2022-08-03T15:34:17.071Z,1.77
2022-08-03T15:36:22.272Z,1.80
2022-08-03T15:38:26.360Z,1.67
2022-08-03T15:40:29.960Z,1.50
2022-08-03T15:42:35.999Z,1.90
2022-08-03T15:44:39.663Z,2.10
2022-08-03T15:46:43.127Z,1.70
2022-08-03T15:48:46.875Z,1.83
2022-08-03T15:50:50.411Z,2.10
2022-08-03T15:52:56.990Z,1.50
2022-08-03T15:55:00.556Z,1.93
2022-08-03T15:57:04.031Z,3.80
2022-08-03T15:59:13.379Z,2.40
2022-08-03T16:01:19.791Z,2.20
2022-08-03T16:03:23.581Z,1.40
2022-08-03T16:05:27.022Z,1.77
2022-08-03T16:08:03.250Z,1.30
2022-08-03T16:10:10.527Z,1.70
2022-08-03T16:12:16.426Z,1.60
2022-08-03T16:14:34.261Z,1.90
2022-08-03T16:16:41.316Z,1.67
2022-08-03T16:18:44.805Z,1.60
2022-08-03T16:20:48.804Z,1.90
2022-08-03T16:22:52.351Z,1.60
2022-08-03T16:24:56.095Z,2.03
2022-08-03T16:27:01.078Z,1.37
2022-08-03T16:29:05.126Z,1.63
2022-08-03T16:31:27.198Z,1.80
2022-08-03T16:33:30.626Z,1.60
2022-08-03T16:35:34.419Z,1.97
2022-08-03T16:37:39.173Z,1.70
2022-08-03T16:39:42.994Z,1.53
2022-08-03T16:41:54.378Z,1.50
2022-08-03T16:44:09.907Z,1.60
2022-08-03T16:46:13.409Z,1.37
2022-08-03T16:48:17.496Z,1.70
2022-08-03T16:50:21.096Z,0.93
2022-08-03T16:52:25.950Z,1.47
2022-08-03T16:54:29.306Z,0.97
2022-08-03T16:56:32.800Z,1.07
2022-08-03T16:58:41.906Z,1.03
2022-08-03T17:00:47.914Z,1.50
2022-08-03T17:02:58.550Z,1.17
2022-08-03T17:05:02.159Z,1.40
2022-08-03T17:07:06.883Z,1.87
2022-08-03T17:09:15.422Z,1.50
2022-08-03T17:11:21.779Z,1.50
2022-08-03T17:13:38.750Z,1.30
2022-08-03T17:15:57.967Z,1.10
2022-08-03T17:18:06.425Z,1.87
2022-08-03T17:20:13.338Z,1.47
2022-08-03T17:22:20.773Z,1.40
2022-08-03T17:24:30.037Z,1.40
2022-08-03T17:26:38.412Z,1.13
2022-08-03T17:28:58.109Z,1.43
2022-08-03T17:31:22.920Z,1.50
2022-08-03T17:33:35.585Z,1.60
2022-08-03T17:35:39.104Z,1.40
2022-08-03T17:38:04.045Z,1.20
2022-08-03T17:40:08.216Z,1.17
2022-08-03T17:42:29.258Z,0.97
2022-08-03T17:44:46.024Z,1.20
2022-08-03T17:46:52.201Z,1.50
2022-08-03T17:48:57.090Z,1.00
2022-08-03T17:51:07.338Z,1.30
2022-08-03T17:53:25.423Z,1.37
2022-08-03T17:55:56.942Z,1.50
2022-08-03T17:58:02.230Z,1.30
2022-08-03T18:00:22.939Z,0.93
2022-08-03T18:02:55.576Z,1.10
2022-08-03T18:05:16.369Z,1.30
2022-08-03T18:07:23.378Z,1.13
2022-08-03T18:10:03.864Z,1.00
2022-08-03T18:12:17.797Z,1.07
2022-08-03T18:14:28.543Z,1.10
2022-08-03T18:16:35.641Z,1.50
2022-08-03T18:18:45.103Z,1.20
2022-08-03T18:20:53.489Z,1.13
2022-08-03T18:22:57.926Z,0.90
2022-08-03T18:25:09.478Z,1.20
2022-08-03T18:27:19.432Z,1.30
2022-08-03T18:29:23.734Z,1.30
2022-08-03T18:32:00.471Z,1.10
2022-08-03T18:34:17.506Z,0.90
2022-08-03T18:36:22.081Z,1.40
2022-08-03T18:38:43.569Z,0.90
2022-08-03T18:40:50.098Z,1.10
2022-08-03T18:42:54.840Z,1.00
2022-08-03T18:44:58.530Z,1.00
2022-08-03T18:47:51.520Z,1.10
2022-08-03T18:50:08.587Z,0.90
2022-08-03T18:52:17.627Z,0.90
2022-08-03T18:54:57.256Z,0.90
2022-08-03T18:56:54.923Z,1.03
2022-08-03T18:59:02.588Z,1.10
2022-08-03T19:01:15.223Z,1.20
2022-08-03T19:03:43.391Z,1.00
2022-08-03T19:06:06.324Z,1.00
2022-08-03T19:08:17.047Z,0.80
2022-08-03T19:10:21.335Z,1.00
2022-08-03T19:12:39.575Z,1.00
2022-08-03T19:14:48.323Z,1.10
2022-08-03T19:17:00.555Z,1.00
2022-08-03T19:19:05.660Z,0.93
2022-08-03T19:21:12.759Z,0.90
2022-08-03T19:23:23.998Z,0.97
2022-08-03T19:25:34.508Z,1.10
2022-08-03T19:27:40.414Z,1.00
2022-08-03T19:29:59.820Z,1.20
2022-08-03T19:32:05.040Z,0.87
2022-08-03T19:34:08.683Z,1.10
2022-08-03T19:36:15.035Z,1.10
2022-08-03T19:38:27.628Z,1.00
2022-08-03T19:40:34.270Z,1.07
2022-08-03T19:42:45.415Z,1.10
2022-08-03T19:44:52.842Z,1.20
2022-08-03T19:47:01.630Z,1.63
2022-08-03T19:49:10.345Z,2.40
2022-08-03T19:51:15.710Z,5.50
2022-08-03T19:53:21.425Z,2.23
2022-08-03T19:55:29.656Z,2.00
2022-08-03T19:57:37.205Z,1.73
2022-08-03T19:59:49.751Z,2.10
2022-08-03T20:01:54.094Z,1.67
2022-08-03T20:03:58.517Z,1.83
2022-08-03T20:06:03.701Z,1.37
2022-08-03T20:08:09.474Z,1.70
2022-08-03T20:10:13.344Z,1.17
2022-08-03T20:12:19.278Z,1.30
2022-08-03T20:14:32.032Z,1.37
2022-08-03T20:16:35.658Z,1.90
2022-08-03T20:18:39.662Z,1.37
2022-08-03T20:20:43.240Z,1.40
2022-08-03T20:22:52.653Z,2.00
2022-08-03T20:24:58.675Z,1.53
2022-08-03T20:27:03.713Z,1.47
2022-08-03T20:29:12.825Z,1.87
2022-08-03T20:31:16.660Z,1.50
2022-08-03T20:33:20.842Z,1.57
2022-08-03T20:35:38.236Z,1.53
2022-08-03T20:37:45.483Z,1.50
2022-08-03T20:39:49.762Z,1.63
2022-08-03T20:41:54.958Z,1.13
2022-08-03T20:44:00.898Z,1.50
2022-08-03T20:46:29.170Z,1.57
2022-08-03T20:48:28.011Z,1.27
2022-08-03T20:50:32.449Z,2.13
2022-08-03T20:52:43.978Z,1.20
2022-08-03T20:54:53.391Z,1.40
2022-08-03T20:56:58.812Z,1.30
2022-08-03T20:59:04.100Z,1.73
2022-08-03T21:01:07.549Z,1.10
2022-08-03T21:03:12.567Z,1.33
2022-08-03T21:05:16.146Z,1.33
2022-08-03T21:07:25.579Z,1.67
2022-08-03T21:09:52.960Z,2.70
2022-08-03T21:12:04.117Z,5.30
2022-08-03T21:14:16.325Z,3.37
2022-08-03T21:16:21.514Z,2.90
2022-08-03T21:18:26.893Z,2.67
2022-08-03T21:20:34.218Z,2.17
2022-08-03T21:22:39.737Z,5.30
2022-08-03T21:24:44.660Z,9.90
2022-08-03T21:26:50.150Z,4.90
2022-08-03T21:28:56.924Z,2.67
2022-08-03T21:31:00.491Z,2.60
2022-08-03T21:33:06.553Z,2.90
2022-08-03T21:35:11.194Z,1.70
2022-08-03T21:37:15.764Z,1.73
2022-08-03T21:39:21.147Z,1.97
2022-08-03T21:41:24.720Z,2.00
2022-08-03T21:43:28.277Z,1.30
2022-08-03T21:45:36.470Z,1.93
2022-08-03T21:47:45.156Z,2.10
2022-08-03T21:50:06.649Z,1.73
2022-08-03T21:52:13.921Z,2.10
2022-08-03T21:54:19.131Z,1.97
2022-08-03T21:56:23.380Z,2.13
2022-08-03T21:58:30.946Z,2.03
2022-08-03T22:00:35.961Z,1.60
2022-08-03T22:02:42.632Z,1.40
2022-08-03T22:04:53.250Z,1.67
2022-08-03T22:07:00.158Z,1.10
2022-08-03T22:09:06.422Z,1.50
2022-08-03T22:11:10.975Z,1.30
2022-08-03T22:13:19.480Z,1.07
2022-08-03T22:15:40.682Z,1.30
2022-08-03T22:17:55.037Z,1.40
2022-08-03T22:20:00.036Z,1.30
2022-08-03T22:22:06.073Z,1.50
2022-08-03T22:24:09.822Z,1.33
2022-08-03T22:26:18.913Z,1.43
2022-08-03T22:28:38.664Z,1.60
2022-08-03T22:30:44.256Z,1.30
2022-08-03T22:32:50.308Z,1.13
2022-08-03T22:34:54.779Z,1.20
2022-08-03T22:37:03.045Z,1.73
2022-08-03T22:39:07.071Z,2.00
2022-08-03T22:41:10.663Z,1.67
2022-08-03T22:43:14.454Z,1.53
2022-08-03T22:46:08.930Z,1.50
2022-08-03T22:47:44.460Z,2.10
2022-08-03T22:49:49.998Z,1.97
2022-08-03T22:52:15.888Z,1.87
2022-08-03T22:54:19.934Z,1.80
2022-08-03T22:56:24.214Z,1.90
2022-08-03T22:58:27.669Z,1.90
2022-08-03T23:00:31.247Z,2.07
2022-08-03T23:02:37.308Z,1.93
2022-08-03T23:04:43.384Z,1.70
2022-08-03T23:06:52.072Z,1.63
2022-08-03T23:08:56.441Z,1.57
2022-08-03T23:11:05.847Z,1.87
2022-08-03T23:13:09.504Z,1.80
2022-08-03T23:15:14.530Z,2.10
2022-08-03T23:17:20.691Z,1.90
2022-08-03T23:19:27.536Z,1.80
2022-08-03T23:21:53.733Z,1.50
2022-08-03T23:24:00.497Z,1.73
2022-08-03T23:26:04.522Z,1.50
2022-08-03T23:28:10.048Z,1.60
2022-08-03T23:30:13.984Z,1.90
2022-08-03T23:32:21.940Z,1.93
2022-08-03T23:34:44.060Z,1.70
2022-08-03T23:36:50.688Z,1.77
2022-08-03T23:38:55.408Z,2.00
2022-08-03T23:41:00.759Z,1.60
2022-08-03T23:43:05.440Z,1.77
2022-08-03T23:45:10.238Z,1.43
2022-08-03T23:47:13.971Z,1.60
2022-08-03T23:49:17.533Z,1.70
2022-08-03T23:51:28.715Z,1.70
2022-08-03T23:53:41.840Z,1.50
2022-08-03T23:56:14.022Z,2.20
2022-08-03T23:58:31.712Z,1.97
